Time;durP1;ratioP1;P1;durP2;ratioP2;P2;SDS_P1;SDS_P2;PMS_P1;PMS_P2;Temp;Humidity;BMP_temperature;BMP_pressure;BME280_temperature;BME280_humidity;BME280_pressure;Samples;Min_cycle;Max_cycle;Signal;HPM_P1;HPM_P2
2023/12/31 17:25:18;;;;;;;;;;;;;;;;;;5075366;27;81941;-66
2023/12/31 17:27:48;;;;;;;;;;;;;;;;;;5063844;27;89463;-66
2023/12/31 17:30:14;;;;;;;;;;;;;;;;;;5067351;27;90159;-67
2023/12/31 17:32:40;;;;;;;;;;;;;;;;;;5053525;27;89556;-66
2023/12/31 17:35:06;;;;;;;;;;;;;;;;;;5065604;27;89160;-65
2023/12/31 17:37:32;;;;;;;;;;;;;;;;;;5069333;27;89060;-67
2023/12/31 17:39:58;;;;;;;;;;;;;;;;;;5065001;27;89080;-67
2023/12/31 17:42:23;;;;;;;;;;;;;;;;;;5066181;27;89570;-66
2023/12/31 17:44:51;;;;;;;;;;;;;;;;;;5068505;27;92220;-68
2023/12/31 17:47:16;;;;;;;;;;;;;;;;;;5068601;27;89521;-66
2023/12/31 17:49:42;;;;;;;;;;;;;;;;;;5070154;27;89713;-66
2023/12/31 17:52:07;;;;;;;;;;;;;;;;;;5062691;27;89528;-68
2023/12/31 17:54:32;;;;;;;;;;;;;;;;;;5067172;27;89467;-68
2023/12/31 17:56:58;;;;;;;;;;;;;;;;;;5066570;27;89309;-66
2023/12/31 17:59:23;;;;;;;;;;;;;;;;;;5067762;27;89147;-66
2023/12/31 18:01:49;;;;;;;;;;;;;;;;;;5059347;27;89274;-67
2023/12/31 18:04:14;;;;;;;;;;;;;;;;;;5070632;27;89140;-66
2023/12/31 18:06:42;;;;;;;;;;;;;;;;;;5074089;27;89578;-66
2023/12/31 18:09:08;;;;;;;;;;;;;;;;;;5064186;27;89396;-65
2023/12/31 18:11:33;;;;;;;;;;;;;;;;;;5068063;27;89911;-67
2023/12/31 18:13:58;;;;;;;;;;;;;;;;;;5071788;27;89520;-65
2023/12/31 18:16:23;;;;;;;;;;;;;;;;;;5060555;27;89241;-66
2023/12/31 18:18:49;;;;;;;;;;;;;;;;;;5066855;27;90420;-66
2023/12/31 18:21:14;;;;;;;;;;;;;;;;;;5066625;27;89541;-66
2023/12/31 18:23:40;;;;;;;;;;;;;;;;;;5069256;27;89820;-66
2023/12/31 18:26:05;;;;;;;;;;;;;;;;;;5068300;27;89142;-66
2023/12/31 18:28:30;;;;;;;;;;;;;;;;;;5075211;27;92484;-65
2023/12/31 18:30:55;;;;;;;;;;;;;;;;;;5070233;27;89511;-65
2023/12/31 18:33:21;;;;;;;;;;;;;;;;;;5063676;27;92228;-67
2023/12/31 18:35:46;;;;;;;;;;;;;;;;;;5052254;27;91917;-65
2023/12/31 18:38:11;;;;;;;;;;;;;;;;;;5061011;27;89409;-65
2023/12/31 18:40:39;;;;;;;;;;;;;;;;;;5049299;27;92261;-66
2023/12/31 18:43:05;;;;;;;;;;;;;;;;;;5057542;27;91120;-66
2023/12/31 18:45:30;;;;;;;;;;;;;;;;;;5044505;27;89170;-65
2023/12/31 18:47:55;;;;;;;;;;;;;;;;;;5056811;27;90861;-66
2023/12/31 18:50:20;;;;;;;;;;;;;;;;;;5053371;27;89186;-67
2023/12/31 18:52:45;;;;;;;;;;;;;;;;;;5053496;27;90143;-66
2023/12/31 18:55:11;;;;;;;;;;;;;;;;;;5056613;27;90500;-67
2023/12/31 18:57:36;;;;;;;;;;;;;;;;;;5038419;27;89193;-67
2023/12/31 19:00:02;;;;;;;;;;;;;;;;;;5036702;27;92429;-67
2023/12/31 19:02:28;;;;;;;;;;;;;;;;;;5052048;27;89106;-68
2023/12/31 19:04:54;;;;;;;;;;;;;;;;;;5045011;27;91713;-66
2023/12/31 19:07:19;;;;;;;;;;;;;;;;;;5047386;27;92137;-68
2023/12/31 19:09:44;;;;;;;;;;;;;;;;;;5053104;27;89413;-67
2023/12/31 19:12:10;;;;;;;;;;;;;;;;;;5059529;27;89682;-67
2023/12/31 19:14:38;;;;;;;;;;;;;;;;;;5053197;27;89254;-67
2023/12/31 19:17:03;;;;;;;;;;;;;;;;;;5054462;27;89512;-66
2023/12/31 19:19:28;;;;;;;;;;;;;;;;;;5052416;27;89405;-66
2023/12/31 19:21:55;;;;;;;;;;;;;;;;;;5047708;27;90774;-67
2023/12/31 19:24:20;;;;;;;;;;;;;;;;;;5052836;27;89152;-66
2023/12/31 19:26:48;;;;;;;;;;;;;;;;;;5047982;27;89102;-68
2023/12/31 19:29:13;;;;;;;;;;;;;;;;;;5053527;27;90235;-66
2023/12/31 19:31:41;;;;;;;;;;;;;;;;;;5040131;27;89409;-67
